createdAt,value
2017-06-28T00:01:53.232Z,20.40
2017-06-28T00:04:21.733Z,20.43
2017-06-28T00:06:51.255Z,19.05
2017-06-28T00:09:21.549Z,21.05
2017-06-28T00:11:49.923Z,19.48
2017-06-28T00:14:21.266Z,20.20
2017-06-28T00:16:54.591Z,20.72
2017-06-28T00:19:23.240Z,21.37
2017-06-28T00:21:53.145Z,20.68
2017-06-28T00:24:21.225Z,22.08
2017-06-28T00:26:49.620Z,21.42
2017-06-28T00:29:17.422Z,20.15
2017-06-28T00:31:46.460Z,20.92
2017-06-28T00:34:14.057Z,20.58
2017-06-28T00:36:41.676Z,19.82
2017-06-28T00:39:11.106Z,21.33
2017-06-28T00:41:42.659Z,21.62
2017-06-28T00:44:13.267Z,21.87
2017-06-28T00:46:41.540Z,20.63
2017-06-28T00:49:10.747Z,21.83
2017-06-28T00:51:39.281Z,23.40
2017-06-28T00:54:07.229Z,20.63
2017-06-28T00:56:38.517Z,20.43
2017-06-28T00:59:08.242Z,19.52
2017-06-28T01:01:35.370Z,20.43
2017-06-28T01:04:03.124Z,21.20
2017-06-28T01:06:30.814Z,20.50
2017-06-28T01:09:02.591Z,20.12
2017-06-28T01:11:29.408Z,22.07
2017-06-28T01:13:59.250Z,20.57
2017-06-28T01:16:28.103Z,21.23
2017-06-28T01:19:00.038Z,19.75
2017-06-28T01:21:28.778Z,22.30
2017-06-28T01:23:57.067Z,19.93
2017-06-28T01:26:25.565Z,22.00
2017-06-28T01:28:54.643Z,20.87
2017-06-28T01:31:23.384Z,20.32
2017-06-28T01:33:52.945Z,21.28
2017-06-28T01:36:22.622Z,21.67
2017-06-28T01:38:52.104Z,23.10
2017-06-28T01:43:58.447Z,19.63
2017-06-28T01:46:38.617Z,20.28
2017-06-28T01:49:06.507Z,20.05
2017-06-28T01:51:38.188Z,20.15
2017-06-28T01:54:07.702Z,20.13
2017-06-28T01:56:36.001Z,20.95
2017-06-28T01:59:04.093Z,19.78
2017-06-28T02:01:31.495Z,19.03
2017-06-28T02:03:58.517Z,21.35
2017-06-28T02:06:26.304Z,21.00
2017-06-28T02:11:29.205Z,20.43
2017-06-28T02:13:56.822Z,20.13
2017-06-28T02:16:23.980Z,20.90
2017-06-28T02:18:51.774Z,21.33
2017-06-28T02:21:20.635Z,22.00
2017-06-28T02:23:50.125Z,21.45
2017-06-28T02:26:23.139Z,20.73
2017-06-28T02:28:51.912Z,21.02
2017-06-28T02:31:21.505Z,21.75
2017-06-28T02:33:48.709Z,22.38
2017-06-28T02:36:18.735Z,21.57
2017-06-28T02:38:55.639Z,21.92
2017-06-28T02:41:22.838Z,19.63
2017-06-28T02:43:50.700Z,19.60
2017-06-28T02:46:19.688Z,20.37
2017-06-28T02:48:49.016Z,19.08
2017-06-28T02:51:19.139Z,20.08
2017-06-28T02:53:50.972Z,20.40
2017-06-28T02:56:19.619Z,21.65
2017-06-28T02:58:50.081Z,20.18
2017-06-28T03:01:20.469Z,19.32
2017-06-28T03:03:48.826Z,21.83
2017-06-28T03:06:18.878Z,19.08
2017-06-28T03:08:46.224Z,20.57
2017-06-28T03:11:13.246Z,19.70
2017-06-28T03:13:42.311Z,18.50
2017-06-28T03:16:14.705Z,18.78
2017-06-28T03:18:44.203Z,19.42
2017-06-28T03:21:13.254Z,21.52
2017-06-28T03:23:46.263Z,20.70
2017-06-28T03:26:13.390Z,18.78
2017-06-28T03:28:43.566Z,19.67
2017-06-28T03:31:12.514Z,20.33
2017-06-28T03:33:44.984Z,19.00
2017-06-28T03:36:13.386Z,19.10
2017-06-28T03:41:18.020Z,19.88
2017-06-28T03:43:46.201Z,17.93
2017-06-28T03:46:20.502Z,17.92
2017-06-28T03:48:51.727Z,20.07
2017-06-28T03:51:21.931Z,18.70
2017-06-28T03:53:50.525Z,18.40
2017-06-28T03:56:19.427Z,19.52
2017-06-28T03:58:47.288Z,18.88
2017-06-28T04:01:14.096Z,20.00
2017-06-28T04:03:44.655Z,19.10
2017-06-28T04:06:15.384Z,18.45
2017-06-28T04:08:45.079Z,18.67
2017-06-28T04:11:12.184Z,18.65
2017-06-28T04:13:40.874Z,18.33
2017-06-28T04:16:11.484Z,18.33
2017-06-28T04:18:40.690Z,19.12
2017-06-28T04:21:09.567Z,18.68
2017-06-28T04:23:36.925Z,18.38
2017-06-28T04:26:04.001Z,18.43
2017-06-28T04:28:31.187Z,18.25
2017-06-28T04:30:58.235Z,18.83
2017-06-28T04:33:25.304Z,17.90
2017-06-28T04:35:52.064Z,18.62
2017-06-28T04:38:19.602Z,20.18
2017-06-28T04:40:46.750Z,19.02
2017-06-28T04:43:13.807Z,20.20
2017-06-28T04:45:41.112Z,21.00
2017-06-28T04:48:07.871Z,21.12
2017-06-28T04:50:35.045Z,19.80
2017-06-28T04:53:02.471Z,19.85
2017-06-28T04:55:29.238Z,21.37
2017-06-28T04:57:56.006Z,20.52
2017-06-28T05:00:24.715Z,20.12
2017-06-28T05:02:52.821Z,21.13
2017-06-28T05:05:21.204Z,18.53
2017-06-28T05:07:50.128Z,17.45
2017-06-28T05:10:17.151Z,20.90
2017-06-28T05:12:44.859Z,19.18
2017-06-28T05:15:12.714Z,20.65
2017-06-28T05:17:39.815Z,21.03
2017-06-28T05:20:06.566Z,19.60
2017-06-28T05:22:35.201Z,20.15
2017-06-28T05:25:01.982Z,21.32
2017-06-28T05:27:28.764Z,18.75
2017-06-28T05:29:56.677Z,19.68
2017-06-28T05:32:23.700Z,19.37
2017-06-28T05:34:50.790Z,18.42
2017-06-28T05:37:19.456Z,20.22
2017-06-28T05:39:46.219Z,19.33
2017-06-28T05:42:13.960Z,21.15
2017-06-28T05:44:41.494Z,19.55
2017-06-28T05:47:08.283Z,17.95
2017-06-28T05:49:35.293Z,19.50
2017-06-28T05:52:02.335Z,20.43
2017-06-28T05:54:30.983Z,22.27
2017-06-28T05:56:58.568Z,21.63
2017-06-28T05:59:25.893Z,21.58
2017-06-28T06:01:52.769Z,23.62
2017-06-28T06:04:20.056Z,23.17
2017-06-28T06:06:47.256Z,21.52
2017-06-28T06:09:14.187Z,25.18
2017-06-28T06:11:41.990Z,23.93
2017-06-28T06:14:16.000Z,24.20
2017-06-28T06:16:42.805Z,27.17
2017-06-28T06:19:09.663Z,22.88
2017-06-28T06:21:36.792Z,25.73
2017-06-28T06:24:03.634Z,23.18
2017-06-28T06:26:30.508Z,23.15
2017-06-28T06:28:57.653Z,23.10
2017-06-28T06:31:27.696Z,20.23
2017-06-28T06:33:54.566Z,23.82
2017-06-28T06:36:27.340Z,22.93
2017-06-28T06:38:54.215Z,21.55
2017-06-28T06:41:21.096Z,22.38
2017-06-28T06:43:48.285Z,26.95
2017-06-28T06:46:17.683Z,25.00
2017-06-28T06:51:37.066Z,22.98
2017-06-28T06:54:04.970Z,20.12
2017-06-28T06:56:32.038Z,21.43
2017-06-28T06:58:59.210Z,19.93
2017-06-28T07:01:36.063Z,19.85
2017-06-28T07:04:03.137Z,17.83
2017-06-28T07:06:29.978Z,18.60
2017-06-28T07:08:57.528Z,16.50
2017-06-28T07:11:24.588Z,19.00
2017-06-28T07:13:52.788Z,17.82
2017-06-28T07:16:21.115Z,17.35
2017-06-28T07:18:53.263Z,17.95
2017-06-28T07:21:22.234Z,18.33
2017-06-28T07:23:49.679Z,19.50
2017-06-28T07:26:16.760Z,16.58
2017-06-28T07:28:44.197Z,16.25
2017-06-28T07:31:11.240Z,19.40
2017-06-28T07:33:42.008Z,19.72
2017-06-28T07:36:09.760Z,16.94
2017-06-28T07:38:37.396Z,18.23
2017-06-28T07:41:04.641Z,18.10
2017-06-28T07:43:32.618Z,16.58
2017-06-28T07:46:00.381Z,18.48
2017-06-28T07:48:27.736Z,19.82
2017-06-28T07:50:56.056Z,19.16
2017-06-28T07:53:25.869Z,19.00
2017-06-28T07:55:53.253Z,15.98
2017-06-28T07:58:21.424Z,15.88
2017-06-28T08:00:48.507Z,15.10
2017-06-28T08:03:16.321Z,16.34
2017-06-28T08:05:43.702Z,16.96
2017-06-28T08:08:10.720Z,17.24
2017-06-28T08:10:37.973Z,14.98
2017-06-28T08:13:05.328Z,16.10
2017-06-28T08:15:32.390Z,15.56
2017-06-28T08:18:00.355Z,15.78
2017-06-28T08:20:28.088Z,14.34
2017-06-28T08:22:55.156Z,16.56
2017-06-28T08:25:22.442Z,14.26
2017-06-28T08:27:49.980Z,16.70
2017-06-28T08:30:17.253Z,14.34
2017-06-28T08:32:44.303Z,14.66
2017-06-28T08:35:11.358Z,15.82
2017-06-28T08:37:38.688Z,15.94
2017-06-28T08:40:05.447Z,17.00
2017-06-28T08:42:32.751Z,15.58
2017-06-28T08:44:59.523Z,15.16
2017-06-28T08:47:26.570Z,15.46
2017-06-28T08:49:54.693Z,15.18
2017-06-28T08:52:21.989Z,15.62
2017-06-28T08:54:49.218Z,16.18
2017-06-28T08:57:18.001Z,17.20
2017-06-28T08:59:45.154Z,18.58
2017-06-28T09:02:13.347Z,18.00
2017-06-28T09:04:46.146Z,16.42
2017-06-28T09:07:14.918Z,18.00
2017-06-28T09:09:45.604Z,17.04
2017-06-28T09:12:14.922Z,17.34
2017-06-28T09:14:48.854Z,17.66
2017-06-28T09:17:16.305Z,20.76
2017-06-28T09:19:46.158Z,17.52
2017-06-28T09:22:14.949Z,17.16
2017-06-28T09:27:26.611Z,17.04
2017-06-28T09:29:54.228Z,16.27
2017-06-28T09:32:25.958Z,18.65
2017-06-28T09:34:55.990Z,15.17
2017-06-28T09:40:10.491Z,15.88
2017-06-28T09:42:53.737Z,16.56
2017-06-28T09:53:24.477Z,15.20
2017-06-28T09:55:59.053Z,15.84
2017-06-28T09:58:30.930Z,14.40
2017-06-28T10:00:59.427Z,12.58
2017-06-28T10:03:27.246Z,16.70
2017-06-28T10:11:15.551Z,13.16
2017-06-28T10:13:44.706Z,13.74
2017-06-28T10:16:12.818Z,14.82
2017-06-28T10:18:39.691Z,14.18
2017-06-28T10:21:07.457Z,14.46
2017-06-28T10:23:36.072Z,15.80
2017-06-28T10:26:03.979Z,15.50
2017-06-28T10:28:32.586Z,14.78
2017-06-28T10:31:04.643Z,14.92
2017-06-28T10:33:34.732Z,15.32
2017-06-28T10:36:02.058Z,15.22
2017-06-28T10:38:30.112Z,14.48
2017-06-28T10:41:00.838Z,15.20
2017-06-28T10:43:32.941Z,15.18
2017-06-28T10:46:03.873Z,15.48
2017-06-28T10:48:33.028Z,14.48
2017-06-28T10:51:01.367Z,14.38
2017-06-28T10:53:34.573Z,14.24
2017-06-28T10:56:02.140Z,14.18
2017-06-28T10:58:32.447Z,14.90
2017-06-28T11:01:01.759Z,15.72
2017-06-28T11:03:31.710Z,16.52
2017-06-28T11:06:05.266Z,16.60
2017-06-28T11:08:37.696Z,16.02
2017-06-28T11:11:12.987Z,17.18
2017-06-28T11:13:41.475Z,16.96
2017-06-28T11:16:11.309Z,18.40
2017-06-28T11:18:44.746Z,17.50
2017-06-28T11:21:16.639Z,18.72
2017-06-28T11:26:21.582Z,18.78
2017-06-28T11:34:02.620Z,18.76
2017-06-28T11:36:32.319Z,18.12
2017-06-28T11:39:01.411Z,19.26
2017-06-28T11:41:33.620Z,19.20
2017-06-28T11:44:01.180Z,18.64
2017-06-28T11:46:29.935Z,18.40
2017-06-28T11:48:56.722Z,18.88
2017-06-28T11:51:24.181Z,18.92
2017-06-28T11:53:51.368Z,18.10
2017-06-28T11:56:18.589Z,16.90
2017-06-28T11:58:45.973Z,15.38
2017-06-28T12:01:13.027Z,13.86
2017-06-28T12:03:45.740Z,11.42
2017-06-28T12:06:14.165Z,13.70
2017-06-28T12:08:41.277Z,17.68
2017-06-28T12:11:08.635Z,18.64
2017-06-28T12:13:36.552Z,17.86
2017-06-28T12:16:03.606Z,14.28
2017-06-28T12:18:30.760Z,13.74
2017-06-28T12:20:58.871Z,17.88
2017-06-28T12:23:27.345Z,20.80
2017-06-28T12:25:54.437Z,20.96
2017-06-28T12:28:22.122Z,20.60
2017-06-28T12:30:50.472Z,21.24
2017-06-28T12:33:28.586Z,19.94
2017-06-28T12:35:55.435Z,20.88
2017-06-28T12:38:22.287Z,21.40
2017-06-28T12:40:49.387Z,20.38
2017-06-28T12:43:16.238Z,22.26
2017-06-28T12:45:43.096Z,14.98
2017-06-28T12:48:10.257Z,14.26
2017-06-28T12:50:37.101Z,12.64
2017-06-28T12:53:03.974Z,12.98
2017-06-28T12:55:31.405Z,14.56
2017-06-28T12:57:58.426Z,12.68
2017-06-28T13:00:25.292Z,12.34
2017-06-28T13:02:53.247Z,13.50
2017-06-28T13:05:20.099Z,10.98
2017-06-28T13:07:46.890Z,14.46
2017-06-28T13:10:14.034Z,11.67
2017-06-28T13:12:41.150Z,12.52
2017-06-28T13:15:08.187Z,13.18
2017-06-28T13:17:35.330Z,14.62
2017-06-28T13:20:02.137Z,11.70
2017-06-28T13:22:28.989Z,11.15
2017-06-28T13:24:56.587Z,10.35
2017-06-28T13:32:54.999Z,10.06
2017-06-28T13:35:21.883Z,10.34
2017-06-28T13:45:38.588Z,9.80
2017-06-28T13:48:06.243Z,8.92
2017-06-28T13:53:08.304Z,8.88
2017-06-28T13:58:22.561Z,9.78
2017-06-28T14:00:50.808Z,9.86
2017-06-28T14:03:18.207Z,10.08
2017-06-28T14:05:45.773Z,10.26
2017-06-28T14:08:13.134Z,10.00
2017-06-28T14:10:40.994Z,9.90
2017-06-28T14:15:40.930Z,9.14
2017-06-28T14:18:09.119Z,10.36
2017-06-28T14:20:36.908Z,9.24
2017-06-28T14:23:08.238Z,9.52
2017-06-28T14:25:35.952Z,10.20
2017-06-28T14:28:11.159Z,10.66
2017-06-28T14:30:39.902Z,9.20
2017-06-28T14:33:10.411Z,9.42
2017-06-28T14:35:38.145Z,9.76
2017-06-28T14:38:05.240Z,8.70
2017-06-28T14:43:09.777Z,8.46
2017-06-28T14:45:37.029Z,8.22
2017-06-28T14:48:04.473Z,8.88
2017-06-28T14:50:41.006Z,11.24
2017-06-28T14:53:08.322Z,11.68
2017-06-28T14:55:36.077Z,11.08
2017-06-28T14:58:04.442Z,10.98
2017-06-28T15:00:31.689Z,12.22
2017-06-28T15:02:58.757Z,13.56
2017-06-28T15:05:26.737Z,14.00
2017-06-28T15:07:54.995Z,14.58
2017-06-28T15:10:31.675Z,6.16
2017-06-28T15:20:42.953Z,9.28
2017-06-28T15:50:05.366Z,3.93
2017-06-28T16:06:00.447Z,5.82
2017-06-28T16:24:03.737Z,8.10
2017-06-28T16:37:26.793Z,7.82
2017-06-28T16:39:54.284Z,8.82
2017-06-28T16:42:24.778Z,8.93
2017-06-28T16:44:52.361Z,8.12
2017-06-28T16:47:19.692Z,9.70
2017-06-28T16:49:47.607Z,7.93
2017-06-28T16:52:16.070Z,10.15
2017-06-28T16:54:43.321Z,10.85
2017-06-28T16:57:10.244Z,11.80
2017-06-28T17:02:31.958Z,12.53
2017-06-28T17:05:00.249Z,8.90
2017-06-28T17:07:37.257Z,9.77
2017-06-28T17:10:04.167Z,9.97
2017-06-28T17:12:40.075Z,10.52
2017-06-28T17:18:15.301Z,9.32
2017-06-28T17:20:43.583Z,9.53
2017-06-28T17:23:10.481Z,10.05
2017-06-28T17:25:42.935Z,8.98
2017-06-28T17:28:16.159Z,11.05
2017-06-28T17:33:44.961Z,15.77
2017-06-28T17:40:08.634Z,13.94
2017-06-28T17:45:13.509Z,13.56
2017-06-28T17:50:30.030Z,15.88
2017-06-28T17:53:06.391Z,14.60
2017-06-28T17:55:40.751Z,13.75
2017-06-28T18:01:44.470Z,13.48
2017-06-28T18:04:33.356Z,14.10
2017-06-28T18:15:30.174Z,10.68
2017-06-28T18:17:59.901Z,10.53
2017-06-28T18:33:18.072Z,11.12
2017-06-28T22:09:13.171Z,28.62
2017-06-28T22:11:40.775Z,20.77
2017-06-28T22:14:25.081Z,22.15
2017-06-28T22:16:53.935Z,19.80
2017-06-28T22:19:41.174Z,13.97
2017-06-28T22:22:07.979Z,33.42
2017-06-28T22:24:37.833Z,22.60
2017-06-28T22:32:43.819Z,21.90
2017-06-28T22:54:02.698Z,29.10
2017-06-28T22:56:33.069Z,19.90
2017-06-28T23:01:53.349Z,22.22
2017-06-28T23:04:21.118Z,22.20
2017-06-28T23:06:48.815Z,26.95
2017-06-28T23:11:54.901Z,32.92
2017-06-28T23:14:22.737Z,20.73
2017-06-28T23:19:46.610Z,23.75
2017-06-28T23:22:20.815Z,23.32
2017-06-28T23:25:03.072Z,31.32
2017-06-28T23:33:35.223Z,23.68
2017-06-28T23:38:59.328Z,21.68
2017-06-28T23:41:27.988Z,27.43
2017-06-28T23:44:07.090Z,29.03
2017-06-28T23:50:33.510Z,33.10
2017-06-28T23:55:37.551Z,36.60
2017-06-28T23:58:06.407Z,29.00
